createdAt,value
2016-03-27T15:34:34.279Z,7.16
2016-03-27T15:35:33.516Z,6
2016-03-27T15:36:33.737Z,6.5
2016-03-27T15:37:33.537Z,7.87
2016-03-27T15:38:33.462Z,9.33
2016-03-27T15:39:33.480Z,12.23
2016-03-27T15:40:33.295Z,14.23
2016-03-27T15:41:33.486Z,15.65
2016-03-27T15:42:33.300Z,16.5
2016-03-27T15:43:33.241Z,15.72
2016-03-27T15:44:33.180Z,14.28
2016-03-27T15:45:33.278Z,14.09
2016-03-27T15:46:33.217Z,14.47
2016-03-27T15:47:33.314Z,14.27
2016-03-27T15:48:33.161Z,14.56
2016-03-27T15:49:33.100Z,16.19
2016-03-27T15:50:33.197Z,16.94
2016-03-27T15:51:33.183Z,18.19
2016-03-27T15:52:33.046Z,19.23
2016-03-27T15:53:33.018Z,20.56
2016-03-27T15:54:33.224Z,21.61
2016-03-27T15:55:33.007Z,22.36
2016-03-27T15:57:33.591Z,23.6
2016-03-27T15:58:34.077Z,23.78
2016-03-27T15:59:35.205Z,22.91
2016-03-27T16:01:34.133Z,22.06
2016-03-27T16:02:33.635Z,20.34
2016-03-27T16:03:33.856Z,20.08
2016-03-27T16:04:34.453Z,21.23
2016-03-27T16:05:33.300Z,22.75
2016-03-27T16:06:34.599Z,23.21
2016-03-27T16:07:32.773Z,23.78
2016-03-27T16:08:32.746Z,24.15
2016-03-27T16:09:33.107Z,25.1
2016-03-27T16:10:32.734Z,25.18
2016-03-27T16:11:32.706Z,26.05
2016-03-27T16:12:32.662Z,25.94
2016-03-27T16:13:32.868Z,25.84
2016-03-27T16:14:46.449Z,25.84
2016-03-27T16:15:32.623Z,24.99
2016-03-27T16:16:32.767Z,24.7
2016-03-27T16:17:32.738Z,24.33
2016-03-27T16:18:32.756Z,24.52
2016-03-27T16:19:32.556Z,24.81
2016-03-27T16:20:32.919Z,25.1
2016-03-27T16:21:32.843Z,25.2
2016-03-27T16:22:32.517Z,25.67
2016-03-27T16:23:32.505Z,25.87
2016-03-27T16:24:32.819Z,25.87
2016-03-27T16:26:32.669Z,26.61
2016-03-27T16:27:32.390Z,27.19
2016-03-27T16:28:32.393Z,27.58
2016-03-27T16:29:32.365Z,27.37
2016-03-27T16:30:32.476Z,27.75
2016-03-27T16:31:32.323Z,28.33
2016-03-27T16:32:32.404Z,28.81
2016-03-27T16:33:32.500Z,28.5
2016-03-27T16:34:32.346Z,28.7
2016-03-27T16:35:32.723Z,28.6
2016-03-27T16:36:32.367Z,28.42
2016-03-27T16:37:32.262Z,28.52
2016-03-27T16:38:32.264Z,28.61
2016-03-27T16:39:33.704Z,28.42
2016-03-27T16:41:33.053Z,28.23
2016-03-27T16:42:32.134Z,28.33
2016-03-27T16:43:32.417Z,28.34
2016-03-27T16:44:32.358Z,28.34
2016-03-27T16:45:46.173Z,28.25
2016-03-27T16:46:32.566Z,28.25
2016-03-27T16:47:32.584Z,28.25
2016-03-27T16:48:32.072Z,28.44
2016-03-27T16:49:32.169Z,28.45
2016-03-27T16:50:37.264Z,28.16
2016-03-27T16:51:32.064Z,28.47
2016-03-27T16:52:32.552Z,28.27
2016-03-27T16:53:32.366Z,28.27
2016-03-27T16:55:31.841Z,29.04
2016-03-27T16:56:32.952Z,28.66
2016-03-27T16:57:32.455Z,29.61
2016-03-27T16:58:32.410Z,30.08
2016-03-27T16:59:32.211Z,30.07
2016-03-27T17:00:31.776Z,30.55
2016-03-27T17:01:31.715Z,30.44
2016-03-27T17:02:31.750Z,31.4
2016-03-27T17:03:31.657Z,31.48
2016-03-27T17:04:32.771Z,31.96
2016-03-27T17:05:31.630Z,31.87
2016-03-27T17:06:31.618Z,31.66
2016-03-27T17:07:31.589Z,32.14
2016-03-27T17:08:31.654Z,32.7
2016-03-27T17:09:31.673Z,32.7
2016-03-27T17:10:31.551Z,33.08
2016-03-27T17:11:31.584Z,33.17
2016-03-27T17:12:31.478Z,32.89
2016-03-27T17:13:31.480Z,33.35
2016-03-27T17:14:31.467Z,33.25
